createdAt,value
2019-05-13T00:01:10.193Z,41.20
2019-05-13T00:03:36.483Z,41.30
2019-05-13T00:06:04.220Z,41.40
2019-05-13T00:08:33.617Z,41.40
2019-05-13T00:10:59.106Z,41.40
2019-05-13T00:13:25.394Z,41.40
2019-05-13T00:15:54.194Z,41.50
2019-05-13T00:18:20.556Z,41.60
2019-05-13T00:20:46.926Z,41.60
2019-05-13T00:23:14.310Z,41.80
2019-05-13T00:25:40.923Z,41.80
2019-05-13T00:28:07.723Z,41.80
2019-05-13T00:30:34.458Z,41.80
2019-05-13T00:33:03.449Z,41.90
2019-05-13T00:35:29.175Z,41.90
2019-05-13T00:37:55.429Z,42.00
2019-05-13T00:40:23.934Z,42.00
2019-05-13T00:42:49.907Z,42.00
2019-05-13T00:45:16.408Z,42.10
2019-05-13T00:47:43.690Z,42.10
2019-05-13T00:50:10.843Z,42.10
2019-05-13T00:52:37.288Z,42.20
2019-05-13T00:55:04.838Z,42.30
2019-05-13T00:57:31.315Z,42.40
2019-05-13T00:59:58.119Z,42.40
2019-05-13T01:02:24.674Z,42.50
2019-05-13T01:04:53.430Z,42.40
2019-05-13T01:07:27.701Z,42.40
2019-05-13T01:09:48.633Z,42.50
2019-05-13T01:12:14.911Z,42.60
2019-05-13T01:14:43.162Z,42.70
2019-05-13T01:17:09.494Z,42.60
2019-05-13T01:19:36.147Z,42.70
2019-05-13T01:22:03.447Z,42.60
2019-05-13T01:24:32.991Z,42.60
2019-05-13T01:26:59.523Z,43.20
2019-05-13T01:29:26.191Z,42.70
2019-05-13T01:31:53.836Z,42.70
2019-05-13T01:34:20.364Z,43.20
2019-05-13T01:36:46.859Z,42.80
2019-05-13T01:39:13.890Z,42.80
2019-05-13T01:41:40.402Z,43.00
2019-05-13T01:44:06.706Z,43.00
2019-05-13T01:46:34.685Z,43.00
2019-05-13T01:49:01.433Z,43.00
2019-05-13T01:51:27.822Z,43.10
2019-05-13T01:53:54.138Z,43.10
2019-05-13T01:56:20.830Z,43.10
2019-05-13T01:58:47.194Z,43.20
2019-05-13T02:01:13.891Z,43.10
2019-05-13T02:03:40.295Z,43.50
2019-05-13T02:06:06.691Z,43.30
2019-05-13T02:08:33.641Z,43.30
2019-05-13T02:11:00.794Z,43.30
2019-05-13T02:13:27.086Z,43.40
2019-05-13T02:15:54.928Z,43.40
2019-05-13T02:18:24.271Z,43.40
2019-05-13T02:20:50.448Z,43.40
2019-05-13T02:23:16.953Z,43.50
2019-05-13T02:25:44.032Z,43.60
2019-05-13T02:28:10.795Z,43.70
2019-05-13T02:30:37.316Z,43.70
2019-05-13T02:33:03.988Z,43.70
2019-05-13T02:35:32.521Z,43.70
2019-05-13T02:38:14.764Z,43.80
2019-05-13T02:40:27.303Z,43.90
2019-05-13T02:42:53.708Z,43.80
2019-05-13T02:45:22.555Z,43.80
2019-05-13T02:47:48.382Z,43.80
2019-05-13T02:50:15.056Z,43.90
2019-05-13T02:52:44.315Z,43.90
2019-05-13T02:55:12.365Z,43.90
2019-05-13T02:57:38.612Z,43.90
2019-05-13T03:00:07.247Z,43.90
2019-05-13T03:02:33.616Z,43.90
2019-05-13T03:05:03.206Z,43.90
2019-05-13T03:07:28.121Z,44.00
2019-05-13T03:09:54.416Z,44.10
2019-05-13T03:12:23.159Z,44.30
2019-05-13T03:14:48.996Z,44.20
2019-05-13T03:17:26.296Z,44.20
2019-05-13T03:19:53.201Z,44.20
2019-05-13T03:22:22.401Z,44.10
2019-05-13T03:24:52.124Z,44.10
2019-05-13T03:27:20.299Z,44.20
2019-05-13T03:29:45.077Z,44.20
2019-05-13T03:32:16.373Z,44.30
2019-05-13T03:34:44.434Z,44.40
2019-05-13T03:37:14.570Z,44.50
2019-05-13T03:39:38.613Z,44.60
2019-05-13T03:42:05.008Z,44.60
2019-05-13T03:44:32.477Z,44.70
2019-05-13T03:47:03.453Z,45.00
2019-05-13T03:49:33.098Z,45.10
2019-05-13T03:52:02.598Z,44.90
2019-05-13T03:54:28.498Z,45.00
2019-05-13T03:56:55.256Z,45.00
2019-05-13T03:59:22.664Z,45.00
2019-05-13T04:01:52.327Z,45.10
2019-05-13T04:04:18.041Z,45.20
2019-05-13T04:06:44.667Z,45.30
2019-05-13T04:09:22.196Z,45.40
2019-05-13T04:11:42.374Z,45.50
2019-05-13T04:14:12.432Z,45.50
2019-05-13T04:16:38.520Z,45.40
2019-05-13T04:19:05.534Z,45.50
2019-05-13T04:21:33.801Z,45.80
2019-05-13T04:24:03.723Z,45.40
2019-05-13T04:26:32.348Z,45.40
2019-05-13T04:28:58.360Z,45.30
2019-05-13T04:31:24.864Z,45.30
2019-05-13T04:33:53.097Z,45.30
2019-05-13T04:36:23.068Z,45.50
2019-05-13T04:38:47.963Z,45.40
2019-05-13T04:41:14.922Z,45.50
2019-05-13T04:43:43.393Z,45.60
2019-05-13T04:46:13.585Z,45.90
2019-05-13T04:48:40.553Z,46.00
2019-05-13T04:51:06.806Z,46.00
2019-05-13T04:53:33.771Z,46.00
2019-05-13T04:56:03.186Z,45.90
2019-05-13T04:58:31.935Z,46.00
2019-05-13T05:01:14.015Z,46.30
2019-05-13T05:03:53.117Z,46.30
2019-05-13T05:06:33.381Z,46.40
2019-05-13T05:09:18.486Z,46.20
2019-05-13T05:11:54.226Z,46.30
2019-05-13T05:14:33.153Z,46.30
2019-05-13T05:17:34.032Z,46.40
2019-05-13T05:20:04.306Z,46.40
2019-05-13T05:22:52.054Z,46.20
2019-05-13T05:25:45.862Z,46.50
2019-05-13T05:28:34.064Z,46.60
2019-05-13T05:31:11.540Z,46.80
2019-05-13T05:34:06.343Z,47.40
2019-05-13T05:36:52.053Z,46.90
2019-05-13T05:39:23.964Z,47.60
2019-05-13T05:41:53.332Z,47.10
2019-05-13T05:44:22.919Z,47.10
2019-05-13T05:46:53.020Z,47.10
2019-05-13T05:49:21.899Z,47.40
2019-05-13T05:51:51.466Z,47.30
2019-05-13T05:54:21.663Z,47.40
2019-05-13T05:56:51.982Z,47.50
2019-05-13T05:59:21.827Z,47.40
2019-05-13T06:01:52.596Z,47.30
2019-05-13T06:04:21.802Z,47.30
2019-05-13T06:06:52.063Z,47.30
2019-05-13T06:09:17.682Z,47.70
2019-05-13T06:11:44.522Z,47.70
2019-05-13T06:14:11.355Z,47.60
2019-05-13T06:16:38.118Z,47.90
2019-05-13T06:19:04.500Z,48.30
2019-05-13T06:21:32.108Z,48.10
2019-05-13T06:23:58.796Z,48.20
2019-05-13T06:26:25.275Z,48.40
2019-05-13T06:28:52.170Z,48.30
2019-05-13T06:31:21.356Z,48.60
2019-05-13T06:33:47.542Z,48.30
2019-05-13T06:36:14.387Z,48.70
2019-05-13T06:38:42.470Z,48.10
2019-05-13T06:41:12.286Z,47.90
2019-05-13T06:43:37.331Z,47.90
2019-05-13T06:46:03.825Z,47.90
2019-05-13T06:48:32.181Z,48.00
2019-05-13T06:50:58.723Z,48.00
2019-05-13T06:53:25.015Z,48.00
2019-05-13T06:55:52.300Z,48.10
2019-05-13T06:58:18.844Z,48.10
2019-05-13T07:00:45.325Z,48.10
2019-05-13T07:03:12.594Z,48.10
2019-05-13T07:05:42.153Z,48.20
2019-05-13T07:08:07.775Z,48.20
2019-05-13T07:10:34.155Z,48.20
2019-05-13T07:13:02.213Z,48.20
2019-05-13T07:15:31.370Z,48.00
2019-05-13T07:17:56.986Z,47.60
2019-05-13T07:20:23.269Z,47.40
2019-05-13T07:22:52.958Z,47.10
2019-05-13T07:25:17.926Z,46.90
2019-05-13T07:27:44.544Z,46.70
2019-05-13T07:30:12.698Z,46.80
2019-05-13T07:32:41.871Z,46.60
2019-05-13T07:35:07.618Z,46.40
2019-05-13T07:37:37.798Z,46.80
2019-05-13T07:40:06.130Z,45.90
2019-05-13T07:42:32.414Z,45.60
2019-05-13T07:45:01.302Z,45.50
2019-05-13T07:47:27.578Z,45.30
2019-05-13T07:49:53.869Z,45.10
2019-05-13T07:52:22.548Z,45.00
2019-05-13T07:54:48.386Z,45.00
2019-05-13T07:57:14.657Z,45.00
2019-05-13T07:59:41.949Z,44.80
2019-05-13T08:02:08.745Z,44.60
2019-05-13T08:04:35.015Z,44.50
2019-05-13T08:07:02.259Z,44.40
2019-05-13T08:09:31.131Z,44.20
2019-05-13T08:12:08.718Z,44.00
2019-05-13T08:14:27.978Z,43.70
2019-05-13T08:16:54.375Z,43.40
2019-05-13T08:19:21.760Z,43.10
2019-05-13T08:21:48.403Z,42.80
2019-05-13T08:24:14.666Z,42.60
2019-05-13T08:26:47.516Z,42.20
2019-05-13T08:29:11.361Z,42.00
2019-05-13T08:31:37.338Z,41.90
2019-05-13T08:34:05.071Z,41.70
2019-05-13T08:36:32.686Z,41.50
2019-05-13T08:39:02.386Z,41.30
2019-05-13T08:41:32.015Z,41.40
2019-05-13T08:43:57.722Z,41.30
2019-05-13T08:46:24.652Z,41.80
2019-05-13T08:48:51.910Z,41.40
2019-05-13T08:51:18.430Z,41.90
2019-05-13T08:53:44.829Z,41.70
2019-05-13T08:56:12.231Z,41.90
2019-05-13T08:58:38.685Z,42.10
2019-05-13T09:01:05.167Z,42.50
2019-05-13T09:03:32.602Z,42.70
2019-05-13T09:05:59.629Z,42.70
2019-05-13T09:08:26.747Z,42.40
2019-05-13T09:10:56.719Z,42.20
2019-05-13T09:13:22.533Z,41.60
2019-05-13T09:15:51.705Z,41.30
2019-05-13T09:18:18.397Z,40.80
2019-05-13T09:20:44.795Z,39.80
2019-05-13T09:23:11.556Z,39.20
2019-05-13T09:25:38.048Z,38.60
2019-05-13T09:28:04.986Z,38.40
2019-05-13T09:30:32.835Z,37.60
2019-05-13T09:32:59.112Z,36.90
2019-05-13T09:35:25.771Z,36.50
2019-05-13T09:37:52.411Z,35.70
2019-05-13T09:40:18.779Z,35.20
2019-05-13T09:42:51.551Z,34.30
2019-05-13T09:45:13.968Z,33.60
2019-05-13T09:47:41.754Z,33.30
2019-05-13T09:50:08.851Z,32.70
2019-05-13T09:52:35.141Z,32.20
2019-05-13T09:55:03.353Z,31.60
2019-05-13T09:57:32.101Z,31.20
2019-05-13T09:59:58.295Z,30.80
2019-05-13T10:02:24.561Z,30.10
2019-05-13T10:04:51.652Z,29.90
2019-05-13T10:07:18.623Z,29.50
2019-05-13T10:09:48.263Z,29.00
2019-05-13T10:12:13.438Z,28.90
2019-05-13T10:14:40.070Z,28.60
2019-05-13T10:17:06.813Z,28.30
2019-05-13T10:19:33.438Z,27.80
2019-05-13T10:22:00.183Z,27.50
2019-05-13T10:24:26.929Z,27.00
2019-05-13T10:26:53.619Z,27.20
2019-05-13T10:29:22.316Z,26.40
2019-05-13T10:31:51.375Z,26.20
2019-05-13T10:34:17.579Z,25.90
2019-05-13T10:36:45.042Z,25.60
2019-05-13T10:39:12.234Z,25.40
2019-05-13T10:41:38.689Z,25.10
2019-05-13T10:44:05.254Z,24.70
2019-05-13T10:46:32.116Z,24.30
2019-05-13T10:48:58.641Z,24.00
2019-05-13T10:51:25.408Z,23.40
2019-05-13T10:53:58.499Z,23.30
2019-05-13T10:56:21.293Z,23.10
2019-05-13T10:58:47.683Z,23.30
2019-05-13T11:01:14.046Z,23.20
2019-05-13T11:03:42.787Z,23.00
2019-05-13T11:06:11.031Z,22.90
2019-05-13T11:08:37.242Z,22.70
2019-05-13T11:11:03.811Z,22.30
2019-05-13T11:13:49.569Z,22.70
2019-05-13T11:15:58.814Z,22.10
2019-05-13T11:18:25.205Z,22.10
2019-05-13T11:20:51.706Z,22.00
2019-05-13T11:23:18.071Z,21.80
2019-05-13T11:25:44.479Z,21.80
2019-05-13T11:28:12.299Z,21.90
2019-05-13T11:30:39.375Z,21.60
2019-05-13T11:33:10.094Z,21.40
2019-05-13T11:35:34.179Z,21.10
2019-05-13T11:38:01.581Z,21.20
2019-05-13T11:40:28.591Z,21.00
2019-05-13T11:42:54.966Z,21.00
2019-05-13T11:45:22.393Z,20.90
2019-05-13T11:47:52.218Z,21.00
2019-05-13T11:50:18.895Z,20.80
2019-05-13T11:52:45.411Z,20.70
2019-05-13T11:55:13.765Z,20.50
2019-05-13T11:57:43.444Z,20.40
2019-05-13T12:00:13.490Z,20.30
2019-05-13T12:02:42.275Z,20.30
2019-05-13T12:05:08.011Z,20.10
2019-05-13T12:07:34.734Z,20.10
2019-05-13T12:10:02.618Z,20.20
2019-05-13T12:12:33.576Z,19.90
2019-05-13T12:15:22.235Z,20.10
2019-05-13T12:17:25.922Z,19.90
2019-05-13T12:19:54.306Z,19.90
2019-05-13T12:22:22.977Z,20.00
2019-05-13T12:24:49.681Z,19.90
2019-05-13T12:27:17.655Z,19.70
2019-05-13T12:29:45.424Z,19.70
2019-05-13T12:32:13.531Z,19.90
2019-05-13T12:34:44.968Z,20.00
2019-05-13T12:37:08.269Z,19.80
2019-05-13T12:39:34.671Z,19.60
2019-05-13T12:42:03.346Z,19.60
2019-05-13T12:44:31.590Z,19.20
2019-05-13T12:46:58.038Z,19.40
2019-05-13T12:49:32.100Z,19.40
2019-05-13T12:52:00.323Z,19.50
2019-05-13T12:54:23.679Z,19.60
2019-05-13T12:56:52.515Z,19.40
2019-05-13T12:59:19.013Z,19.30
2019-05-13T13:01:46.079Z,19.40
2019-05-13T13:04:12.689Z,19.30
2019-05-13T13:06:41.708Z,19.30
2019-05-13T13:09:07.762Z,19.30
2019-05-13T13:11:34.161Z,19.40
2019-05-13T13:14:05.390Z,19.50
2019-05-13T13:16:34.431Z,19.50
2019-05-13T13:18:57.641Z,19.80
2019-05-13T13:21:33.205Z,19.40
2019-05-13T13:23:52.295Z,19.10
2019-05-13T13:26:33.525Z,19.20
2019-05-13T13:29:00.476Z,18.90
2019-05-13T13:31:27.210Z,19.00
2019-05-13T13:33:55.481Z,19.10
2019-05-13T13:36:24.287Z,19.10
2019-05-13T13:38:55.671Z,19.30
2019-05-13T13:41:22.753Z,19.30
2019-05-13T13:43:46.861Z,19.00
2019-05-13T13:46:31.664Z,19.10
2019-05-13T13:48:43.681Z,19.40
2019-05-13T13:51:14.132Z,19.30
2019-05-13T13:53:43.851Z,19.40
2019-05-13T13:56:07.248Z,19.30
2019-05-13T13:58:34.161Z,19.20
2019-05-13T14:01:11.183Z,19.30
2019-05-13T14:03:34.032Z,19.90
2019-05-13T14:05:59.021Z,19.50
2019-05-13T14:08:25.391Z,19.50
2019-05-13T14:10:51.958Z,19.30
2019-05-13T14:13:18.347Z,19.20
2019-05-13T14:15:44.633Z,19.30
2019-05-13T14:18:11.433Z,19.30
2019-05-13T14:20:38.057Z,19.40
2019-05-13T14:23:04.739Z,19.40
2019-05-13T14:25:32.451Z,19.50
2019-05-13T14:27:59.119Z,19.50
2019-05-13T14:30:25.591Z,19.60
2019-05-13T14:32:52.162Z,19.50
2019-05-13T14:35:18.568Z,19.30
2019-05-13T14:37:45.034Z,19.30
2019-05-13T14:40:12.352Z,19.30
2019-05-13T14:42:38.713Z,19.30
2019-05-13T14:45:06.948Z,19.60
2019-05-13T14:47:33.508Z,19.60
2019-05-13T14:50:01.949Z,19.70
2019-05-13T14:52:28.623Z,19.90
2019-05-13T14:54:55.335Z,19.80
2019-05-13T14:57:21.995Z,19.80
2019-05-13T14:59:48.339Z,19.70
2019-05-13T15:02:14.743Z,19.80
2019-05-13T15:04:41.926Z,19.90
2019-05-13T15:07:11.682Z,19.80
2019-05-13T15:09:37.607Z,19.80
2019-05-13T15:12:04.193Z,19.90
2019-05-13T15:14:32.336Z,19.90
2019-05-13T15:17:03.068Z,19.90
2019-05-13T15:19:46.692Z,20.10
2019-05-13T15:22:15.869Z,20.00
2019-05-13T15:24:41.628Z,19.90
2019-05-13T15:27:08.138Z,19.90
2019-05-13T15:29:34.511Z,19.90
2019-05-13T15:32:02.031Z,20.20
2019-05-13T15:34:28.700Z,20.00
2019-05-13T15:36:56.460Z,20.00
2019-05-13T15:39:22.881Z,20.40
2019-05-13T15:41:49.376Z,20.00
2019-05-13T15:44:15.757Z,20.00
2019-05-13T15:46:42.063Z,20.10
2019-05-13T15:49:08.443Z,20.20
2019-05-13T15:51:34.890Z,20.00
2019-05-13T15:54:02.367Z,20.10
2019-05-13T15:56:31.532Z,20.10
2019-05-13T15:58:57.947Z,20.20
2019-05-13T16:01:24.687Z,20.10
2019-05-13T16:03:52.419Z,20.20
2019-05-13T16:06:19.270Z,20.10
2019-05-13T16:08:46.778Z,20.20
2019-05-13T16:11:13.160Z,20.20
2019-05-13T16:13:41.051Z,20.10
2019-05-13T16:16:08.510Z,20.20
2019-05-13T16:18:35.211Z,20.10
2019-05-13T16:21:01.919Z,20.00
2019-05-13T16:23:28.721Z,20.00
2019-05-13T16:25:55.098Z,20.00
2019-05-13T16:28:21.768Z,20.00
2019-05-13T16:30:48.495Z,20.10
2019-05-13T16:33:14.935Z,19.90
2019-05-13T16:35:42.485Z,20.00
2019-05-13T16:38:11.168Z,20.10
2019-05-13T16:40:37.296Z,20.10
2019-05-13T16:43:03.691Z,20.10
2019-05-13T16:45:31.555Z,20.20
2019-05-13T16:48:01.540Z,20.10
2019-05-13T16:50:26.647Z,20.10
2019-05-13T16:52:53.399Z,20.00
2019-05-13T16:55:21.157Z,19.90
2019-05-13T16:57:47.667Z,20.10
2019-05-13T17:00:14.761Z,20.00
2019-05-13T17:02:42.127Z,20.00
2019-05-13T17:05:09.355Z,20.10
2019-05-13T17:07:35.714Z,20.10
2019-05-13T17:10:05.198Z,19.90
2019-05-13T17:12:31.935Z,19.90
2019-05-13T17:14:58.311Z,20.00
2019-05-13T17:17:25.208Z,20.00
2019-05-13T17:19:53.763Z,20.20
2019-05-13T17:22:20.127Z,20.10
2019-05-13T17:24:46.979Z,20.20
2019-05-13T17:27:13.267Z,20.20
2019-05-13T17:29:39.739Z,20.20
2019-05-13T17:32:06.675Z,20.10
2019-05-13T17:34:33.216Z,20.10
2019-05-13T17:37:02.666Z,20.30
2019-05-13T17:39:28.783Z,20.40
2019-05-13T17:41:55.053Z,20.30
2019-05-13T17:44:21.942Z,20.20
2019-05-13T17:46:48.756Z,20.40
2019-05-13T17:49:15.184Z,20.40
2019-05-13T17:51:42.455Z,20.40
2019-05-13T17:54:11.608Z,20.50
2019-05-13T17:56:37.975Z,20.50
2019-05-13T17:59:04.270Z,20.60
2019-05-13T18:01:31.702Z,20.60
2019-05-13T18:03:58.131Z,20.60
2019-05-13T18:06:24.702Z,20.60
2019-05-13T18:08:51.752Z,20.60
2019-05-13T18:11:18.257Z,20.70
2019-05-13T18:13:44.632Z,20.70
2019-05-13T18:16:12.581Z,20.80
2019-05-13T18:18:46.330Z,20.90
2019-05-13T18:21:07.386Z,21.00
2019-05-13T18:23:33.658Z,21.00
2019-05-13T18:26:01.949Z,21.00
2019-05-13T18:28:31.472Z,21.10
2019-05-13T18:30:56.654Z,21.10
2019-05-13T18:33:22.955Z,21.10
2019-05-13T18:35:49.282Z,21.10
2019-05-13T18:38:16.043Z,21.20
2019-05-13T18:40:43.529Z,21.20
2019-05-13T18:43:09.938Z,21.30
2019-05-13T18:45:36.310Z,21.30
2019-05-13T18:48:02.706Z,21.30
2019-05-13T18:50:31.276Z,21.40
2019-05-13T18:52:57.655Z,21.40
2019-05-13T18:55:23.957Z,21.50
2019-05-13T18:57:51.813Z,21.60
2019-05-13T19:00:19.067Z,21.70
2019-05-13T19:02:45.504Z,21.70
2019-05-13T19:05:14.201Z,21.80
2019-05-13T19:07:41.804Z,22.00
2019-05-13T19:10:11.525Z,22.00
2019-05-13T19:12:38.336Z,22.00
2019-05-13T19:15:05.736Z,22.20
2019-05-13T19:17:32.366Z,22.30
2019-05-13T19:19:58.820Z,22.20
2019-05-13T19:22:26.299Z,22.70
2019-05-13T19:24:53.246Z,22.50
2019-05-13T19:27:21.560Z,23.10
2019-05-13T19:29:48.018Z,22.70
2019-05-13T19:32:14.363Z,23.00
2019-05-13T19:34:42.325Z,23.20
2019-05-13T19:37:11.553Z,23.40
2019-05-13T19:39:38.254Z,23.50
2019-05-13T19:42:04.652Z,23.70
2019-05-13T19:44:31.567Z,23.80
2019-05-13T19:46:58.196Z,24.00
2019-05-13T19:49:32.098Z,24.10
2019-05-13T19:51:53.898Z,24.10
2019-05-13T19:54:22.152Z,24.20
2019-05-13T19:56:48.483Z,24.40
2019-05-13T19:59:15.136Z,24.50
2019-05-13T20:01:42.352Z,24.60
2019-05-13T20:04:09.086Z,24.70
2019-05-13T20:06:35.377Z,24.90
2019-05-13T20:09:01.696Z,24.90
2019-05-13T20:11:29.296Z,25.00
2019-05-13T20:13:55.963Z,25.10
2019-05-13T20:16:22.503Z,25.20
2019-05-13T20:18:48.866Z,25.30
2019-05-13T20:21:15.263Z,25.40
2019-05-13T20:23:41.639Z,25.60
2019-05-13T20:26:08.213Z,25.70
2019-05-13T20:28:34.690Z,25.70
2019-05-13T20:31:01.816Z,25.80
2019-05-13T20:33:32.015Z,25.90
2019-05-13T20:35:58.034Z,26.00
2019-05-13T20:38:24.422Z,26.20
2019-05-13T20:40:51.907Z,26.20
2019-05-13T20:43:18.863Z,26.30
2019-05-13T20:45:45.515Z,26.40
2019-05-13T20:48:12.259Z,26.50
2019-05-13T20:50:41.092Z,26.60
2019-05-13T20:53:07.260Z,26.70
2019-05-13T20:55:33.894Z,26.80
2019-05-13T20:58:01.479Z,26.90
2019-05-13T21:00:31.043Z,27.00
2019-05-13T21:02:57.627Z,27.10
2019-05-13T21:05:24.011Z,27.20
2019-05-13T21:07:51.496Z,27.30
2019-05-13T21:10:18.025Z,27.40
2019-05-13T21:12:44.482Z,27.40
2019-05-13T21:15:12.969Z,27.50
2019-05-13T21:17:39.261Z,27.60
2019-05-13T21:20:18.715Z,27.60
2019-05-13T21:22:34.495Z,27.70
2019-05-13T21:25:02.130Z,27.80
2019-05-13T21:27:31.504Z,27.90
2019-05-13T21:29:57.985Z,27.90
2019-05-13T21:32:24.387Z,28.00
2019-05-13T21:34:51.583Z,28.10
2019-05-13T21:37:18.242Z,28.20
2019-05-13T21:39:44.519Z,28.20
2019-05-13T21:42:11.481Z,28.30
2019-05-13T21:44:37.911Z,28.40
2019-05-13T21:47:04.663Z,28.40
2019-05-13T21:49:32.001Z,28.50
2019-05-13T21:51:58.530Z,28.60
2019-05-13T21:54:24.807Z,28.70
2019-05-13T21:56:51.583Z,28.70
2019-05-13T21:59:18.103Z,28.80
2019-05-13T22:01:44.803Z,28.90
2019-05-13T22:04:12.356Z,28.90
2019-05-13T22:06:39.263Z,29.00
2019-05-13T22:09:07.667Z,29.10
2019-05-13T22:11:35.159Z,29.20
2019-05-13T22:14:01.809Z,29.20
2019-05-13T22:16:28.224Z,29.60
2019-05-13T22:18:54.512Z,29.40
2019-05-13T22:21:20.778Z,29.50
2019-05-13T22:23:47.054Z,29.50
2019-05-13T22:26:14.439Z,29.60
2019-05-13T22:28:41.742Z,29.60
2019-05-13T22:31:08.420Z,29.70
2019-05-13T22:33:35.099Z,29.70
2019-05-13T22:36:01.769Z,29.80
2019-05-13T22:38:28.267Z,29.90
2019-05-13T22:40:54.631Z,30.00
2019-05-13T22:43:21.285Z,30.00
2019-05-13T22:45:47.702Z,30.00
2019-05-13T22:48:15.063Z,30.10
2019-05-13T22:50:41.796Z,30.20
2019-05-13T22:53:08.111Z,30.20
2019-05-13T22:55:34.487Z,30.30
2019-05-13T22:58:01.541Z,30.50
2019-05-13T23:00:28.525Z,30.60
2019-05-13T23:02:54.995Z,30.60
2019-05-13T23:05:21.838Z,30.70
2019-05-13T23:07:48.280Z,31.00
2019-05-13T23:10:14.765Z,30.90
2019-05-13T23:12:42.181Z,31.00
2019-05-13T23:15:09.131Z,31.00
2019-05-13T23:17:35.496Z,31.20
2019-05-13T23:20:03.387Z,31.30
2019-05-13T23:22:29.906Z,31.30
2019-05-13T23:24:56.298Z,31.30
2019-05-13T23:27:22.667Z,31.40
2019-05-13T23:29:51.577Z,31.60
2019-05-13T23:32:17.898Z,31.70
2019-05-13T23:34:44.279Z,31.70
2019-05-13T23:37:11.371Z,31.80
2019-05-13T23:39:37.855Z,31.90
2019-05-13T23:42:04.328Z,32.00
2019-05-13T23:44:32.176Z,32.10
2019-05-13T23:46:58.786Z,32.20
2019-05-13T23:49:25.493Z,32.20
2019-05-13T23:51:52.149Z,32.40
2019-05-13T23:54:18.652Z,32.40
2019-05-13T23:56:44.935Z,32.60
2019-05-13T23:59:11.508Z,32.60
